createdAt,value
2018-12-20T22:36:39.757Z,34.51
2018-12-20T22:38:47.044Z,34.83
2018-12-20T22:38:54.879Z,35.72
2018-12-20T22:44:03.069Z,32.74
2018-12-20T22:44:10.702Z,32.94
2018-12-20T22:44:18.354Z,33.47
2018-12-20T22:44:26.158Z,45.49
2018-12-20T22:44:34.158Z,42.08
2018-12-20T22:44:41.768Z,33.19
2018-12-20T22:44:49.812Z,33.17
2018-12-20T22:44:57.475Z,32.93
2018-12-20T22:45:05.834Z,32.25
2018-12-20T22:45:13.464Z,32.60
2018-12-20T22:45:21.148Z,32.78
2018-12-20T22:45:28.820Z,33.67
2018-12-20T22:45:36.468Z,32.58
2018-12-20T22:45:44.186Z,41.59
2018-12-20T22:45:52.179Z,34.87
2018-12-20T22:45:59.788Z,32.48
2018-12-20T22:46:07.404Z,32.40
2018-12-20T22:46:15.038Z,32.41
2018-12-20T22:46:22.661Z,32.13
2018-12-20T22:46:30.325Z,32.62
2018-12-20T22:46:37.937Z,33.94
2018-12-20T22:46:45.562Z,33.25
2018-12-20T22:46:53.179Z,33.00
2018-12-20T22:47:00.789Z,33.40
2018-12-20T22:47:08.399Z,33.46
2018-12-20T22:47:34.510Z,33.53
2018-12-20T22:47:42.164Z,33.60
2018-12-20T22:47:49.804Z,33.70
2018-12-20T22:47:57.518Z,34.10
2018-12-20T22:48:05.129Z,34.46
2018-12-20T22:48:12.754Z,34.03
2018-12-20T22:48:20.394Z,33.94
2018-12-20T22:48:28.002Z,34.81
2018-12-20T22:48:35.615Z,34.26
2018-12-20T22:48:43.229Z,34.04
2018-12-20T22:48:50.971Z,33.70
2018-12-20T22:48:58.592Z,33.23
2018-12-20T22:49:24.694Z,33.94
2018-12-20T22:49:32.426Z,34.63
2018-12-20T22:49:40.156Z,34.38
2018-12-20T22:49:47.794Z,34.25
2018-12-20T22:49:55.799Z,34.64
2018-12-20T22:50:03.410Z,34.17
2018-12-20T22:50:11.200Z,35.00
2018-12-20T22:50:18.929Z,34.53
2018-12-20T22:50:26.820Z,34.78
2018-12-20T22:50:34.476Z,35.03
2018-12-20T22:50:42.478Z,35.35
2018-12-20T22:50:55.835Z,35.74
2018-12-20T22:50:59.779Z,34.86
2018-12-20T22:51:28.250Z,36.84
2018-12-20T22:51:35.858Z,35.52
2018-12-20T22:51:43.599Z,35.46
2018-12-20T22:56:56.622Z,34.70
2018-12-20T23:00:18.134Z,34.62
2018-12-20T23:00:25.242Z,35.38
2018-12-20T23:00:32.296Z,34.88
2018-12-20T23:00:39.334Z,35.33
2018-12-20T23:00:48.618Z,35.29
2018-12-20T23:00:55.638Z,34.65
2018-12-20T23:01:04.012Z,34.98
2018-12-20T23:01:11.014Z,35.67
2018-12-20T23:01:18.027Z,35.15
2018-12-20T23:01:25.036Z,34.40
2018-12-20T23:01:35.550Z,35.63
2018-12-20T23:01:42.610Z,35.88
2018-12-20T23:01:49.806Z,37.17
2018-12-20T23:01:57.010Z,36.22
2018-12-20T23:02:04.175Z,35.44
2018-12-20T23:04:02.928Z,33.76
2018-12-20T23:04:09.935Z,33.02
2018-12-20T23:04:16.947Z,32.63
2018-12-20T23:04:23.962Z,32.77
2018-12-20T23:04:30.998Z,33.78
2018-12-20T23:04:38.007Z,33.30
2018-12-20T23:04:45.110Z,33.19
2018-12-20T23:04:52.121Z,34.09
2018-12-20T23:04:59.208Z,33.89
2018-12-20T23:05:06.220Z,34.25
2018-12-20T23:05:13.231Z,34.50
2018-12-20T23:05:34.890Z,34.35
2018-12-20T23:05:41.901Z,34.53
2018-12-20T23:05:48.986Z,35.32
2018-12-20T23:05:56.002Z,34.57
2018-12-20T23:06:03.771Z,34.64
2018-12-20T23:06:10.802Z,36.09
2018-12-20T23:07:26.258Z,35.97
2018-12-20T23:07:33.262Z,36.35
2018-12-20T23:07:40.430Z,36.48
2018-12-20T23:07:47.450Z,37.88
2018-12-20T23:07:54.464Z,36.58
2018-12-20T23:08:01.622Z,37.62
2018-12-20T23:08:08.649Z,38.05
2018-12-20T23:08:15.853Z,36.83
2018-12-20T23:08:23.136Z,36.61
2018-12-20T23:08:30.158Z,36.78
2018-12-20T23:08:37.174Z,36.27
2018-12-20T23:08:44.177Z,37.07
2018-12-20T23:08:51.174Z,38.19
2018-12-20T23:08:58.179Z,37.05
2018-12-20T23:09:05.605Z,40.76
2018-12-20T23:09:12.627Z,37.44
2018-12-20T23:09:19.705Z,36.89
2018-12-20T23:09:27.137Z,37.53
2018-12-20T23:09:34.322Z,37.33
2018-12-20T23:09:41.322Z,37.35
2018-12-20T23:09:48.382Z,36.99
2018-12-20T23:09:55.429Z,37.03
2018-12-20T23:10:02.767Z,37.43
2018-12-20T23:10:09.782Z,37.43
2018-12-20T23:10:16.835Z,37.68
2018-12-20T23:10:23.862Z,37.07
2018-12-20T23:10:31.022Z,37.30
2018-12-20T23:10:38.042Z,37.60
2018-12-20T23:10:45.054Z,37.25
2018-12-20T23:10:52.098Z,37.75
2018-12-20T23:10:59.110Z,38.32
2018-12-20T23:11:06.119Z,37.25
2018-12-20T23:11:13.125Z,37.16
2018-12-20T23:11:20.200Z,37.63
2018-12-20T23:11:27.281Z,37.80
2018-12-20T23:14:12.473Z,41.36
2018-12-20T23:14:19.593Z,40.82
2018-12-20T23:14:26.604Z,41.00
2018-12-20T23:14:33.616Z,41.21
2018-12-20T23:14:40.628Z,41.14
2018-12-20T23:14:47.948Z,41.63
2018-12-20T23:14:54.959Z,41.88
2018-12-20T23:15:01.963Z,41.86
2018-12-20T23:15:08.964Z,42.07
2018-12-20T23:15:15.968Z,42.25
2018-12-20T23:15:22.973Z,41.87
2018-12-20T23:15:29.974Z,42.47
2018-12-20T23:15:36.989Z,44.34
2018-12-20T23:15:43.997Z,45.59
2018-12-20T23:15:51.003Z,43.54
2018-12-20T23:15:58.014Z,43.33
2018-12-20T23:16:05.022Z,43.08
2018-12-20T23:16:12.027Z,43.00
2018-12-20T23:16:19.388Z,43.53
2018-12-20T23:16:26.394Z,43.42
2018-12-20T23:16:33.398Z,43.60
2018-12-20T23:16:40.406Z,43.35
2018-12-20T23:16:53.635Z,43.75
2018-12-20T23:16:56.494Z,43.57
2018-12-20T23:17:03.502Z,43.45
2018-12-20T23:17:10.506Z,43.52
2018-12-20T23:17:17.520Z,44.02
2018-12-20T23:17:24.542Z,44.12
2018-12-20T23:17:31.543Z,44.17
2018-12-20T23:17:38.556Z,43.80
2018-12-20T23:17:45.568Z,44.19
2018-12-20T23:17:52.618Z,44.00
2018-12-20T23:17:59.632Z,44.21
2018-12-20T23:18:06.638Z,44.39
2018-12-20T23:18:13.642Z,44.14
2018-12-20T23:18:20.637Z,44.60
2018-12-20T23:18:27.641Z,44.56
2018-12-20T23:18:34.706Z,44.35
2018-12-20T23:18:41.706Z,44.60
2018-12-20T23:18:48.938Z,44.75
2018-12-20T23:18:55.978Z,44.40
2018-12-20T23:19:02.983Z,44.60
2018-12-20T23:19:09.987Z,44.82
2018-12-20T23:19:17.014Z,44.33
2018-12-20T23:19:24.030Z,44.79
2018-12-20T23:19:31.035Z,44.43
2018-12-20T23:19:38.043Z,44.41
2018-12-20T23:19:45.041Z,44.45
2018-12-20T23:19:52.037Z,44.93
2018-12-20T23:19:59.041Z,44.61
2018-12-20T23:20:06.613Z,45.01
2018-12-20T23:20:13.621Z,44.90
2018-12-20T23:20:20.632Z,44.92
2018-12-20T23:20:27.629Z,44.73
2018-12-20T23:20:34.634Z,44.89
2018-12-20T23:20:41.644Z,47.30
2018-12-20T23:20:48.646Z,45.75
2018-12-20T23:20:55.659Z,44.52
2018-12-20T23:21:05.152Z,44.37
2018-12-20T23:21:11.695Z,44.69
2018-12-20T23:21:18.819Z,44.66
2018-12-20T23:21:26.085Z,44.29
2018-12-20T23:21:33.162Z,44.60
2018-12-20T23:21:40.166Z,44.93
2018-12-20T23:21:47.171Z,44.94
2018-12-20T23:21:54.183Z,44.95
2018-12-20T23:22:01.185Z,44.90
2018-12-20T23:22:08.197Z,44.77
2018-12-20T23:22:15.213Z,44.75
2018-12-20T23:22:22.218Z,44.95
2018-12-20T23:22:29.228Z,45.11
2018-12-20T23:22:36.234Z,44.82
2018-12-20T23:22:43.234Z,44.96
2018-12-20T23:22:50.238Z,45.30
2018-12-20T23:22:57.245Z,45.19
2018-12-20T23:23:04.254Z,45.49
2018-12-20T23:23:11.261Z,45.15
2018-12-20T23:23:18.366Z,45.34
2018-12-20T23:23:25.371Z,45.27
2018-12-20T23:23:32.377Z,45.23
2018-12-20T23:23:39.384Z,45.35
2018-12-20T23:23:47.395Z,45.49
2018-12-20T23:23:54.814Z,45.71
2018-12-20T23:24:54.474Z,44.11
2018-12-20T23:25:01.481Z,43.99
2018-12-20T23:25:08.491Z,43.65
2018-12-20T23:25:15.512Z,43.95
2018-12-20T23:25:22.522Z,43.82
2018-12-20T23:25:29.526Z,44.20
2018-12-20T23:25:36.535Z,44.31
2018-12-20T23:25:43.537Z,44.05
2018-12-20T23:25:50.549Z,44.05
2018-12-20T23:25:57.556Z,44.06
2018-12-20T23:26:04.567Z,44.42
2018-12-20T23:26:11.579Z,44.17
2018-12-20T23:26:18.589Z,44.35
2018-12-20T23:26:25.596Z,44.63
2018-12-20T23:26:32.599Z,44.68
2018-12-20T23:26:39.734Z,44.75
2018-12-20T23:26:46.899Z,44.38
2018-12-20T23:26:53.905Z,44.57
2018-12-20T23:27:00.926Z,44.96
2018-12-20T23:27:07.925Z,44.91
2018-12-20T23:27:15.061Z,45.06
2018-12-20T23:27:22.090Z,44.94
2018-12-20T23:27:29.149Z,45.21
2018-12-20T23:27:36.149Z,44.97
2018-12-20T23:27:43.151Z,44.95
2018-12-20T23:27:50.153Z,45.01
2018-12-20T23:27:57.159Z,45.29
2018-12-20T23:28:04.177Z,45.05
2018-12-20T23:28:11.194Z,45.15
2018-12-20T23:28:18.371Z,45.01
2018-12-20T23:28:25.373Z,45.21
2018-12-20T23:28:32.437Z,45.35
2018-12-20T23:28:39.448Z,45.37
2018-12-20T23:28:46.586Z,45.53
2018-12-20T23:28:53.605Z,45.33
2018-12-20T23:29:00.733Z,45.74
2018-12-20T23:29:07.729Z,45.74
2018-12-20T23:29:14.729Z,45.43
2018-12-20T23:29:21.730Z,45.61
2018-12-20T23:29:28.732Z,45.48
2018-12-20T23:29:35.742Z,45.84
2018-12-20T23:29:42.750Z,45.54
2018-12-20T23:29:49.797Z,45.55
2018-12-20T23:29:56.830Z,45.80
2018-12-20T23:30:04.397Z,45.60
2018-12-20T23:30:11.411Z,45.55
2018-12-20T23:30:18.414Z,45.56
2018-12-20T23:30:25.427Z,45.42
2018-12-20T23:30:32.438Z,45.96
2018-12-20T23:30:39.549Z,46.00
2018-12-20T23:30:46.553Z,45.71
2018-12-20T23:30:53.594Z,45.97
2018-12-20T23:31:00.610Z,46.20
2018-12-20T23:31:07.617Z,45.56
2018-12-20T23:31:14.622Z,46.00
2018-12-20T23:31:21.625Z,46.06
2018-12-20T23:31:28.651Z,45.89
2018-12-20T23:31:35.659Z,45.86
2018-12-20T23:31:42.668Z,45.83
2018-12-20T23:31:49.690Z,45.67
2018-12-20T23:31:56.692Z,45.71
2018-12-20T23:32:03.695Z,45.58
2018-12-20T23:32:10.712Z,45.64
2018-12-20T23:32:17.717Z,45.83
2018-12-20T23:32:24.861Z,45.42
2018-12-20T23:32:31.869Z,45.46
2018-12-20T23:32:38.869Z,45.79
2018-12-20T23:32:45.869Z,45.82
2018-12-20T23:32:52.894Z,45.72
2018-12-20T23:32:59.905Z,45.62
2018-12-20T23:33:06.909Z,45.14
2018-12-20T23:33:13.909Z,45.67
2018-12-20T23:33:20.918Z,45.53
2018-12-20T23:33:27.929Z,45.65
2018-12-20T23:33:34.937Z,45.08
2018-12-20T23:33:41.949Z,45.08
2018-12-20T23:33:48.957Z,45.26
2018-12-20T23:33:55.957Z,45.06
2018-12-20T23:34:02.962Z,45.07
2018-12-20T23:34:09.969Z,45.07
2018-12-20T23:34:16.974Z,44.97
2018-12-20T23:34:23.977Z,45.01
2018-12-20T23:34:30.989Z,44.99
2018-12-20T23:34:38.905Z,44.95
2018-12-20T23:34:46.097Z,44.93
2018-12-20T23:34:53.149Z,44.91
2018-12-20T23:35:00.189Z,45.11
2018-12-20T23:35:09.169Z,45.32
2018-12-20T23:35:16.170Z,44.82
2018-12-20T23:35:23.499Z,44.80
2018-12-20T23:35:30.505Z,44.73
2018-12-20T23:35:37.541Z,45.14
2018-12-20T23:35:44.702Z,44.82
2018-12-20T23:35:51.701Z,44.90
2018-12-20T23:35:58.716Z,44.91
2018-12-20T23:36:05.726Z,45.25
2018-12-20T23:36:12.741Z,45.20
2018-12-20T23:36:21.031Z,45.14
2018-12-20T23:36:28.253Z,44.71
